sensor_id;sensor_type;location;lat;lon;timestamp;temperature;humidity
23051;DHT22;11693;51.358;12.410;2022-08-07T00:01:31;19.50;62.40
23051;DHT22;11693;51.358;12.410;2022-08-07T00:03:56;19.40;62.70
23051;DHT22;11693;51.358;12.410;2022-08-07T00:06:22;19.40;62.70
23051;DHT22;11693;51.358;12.410;2022-08-07T00:08:48;19.40;63.40
23051;DHT22;11693;51.358;12.410;2022-08-07T00:11:13;19.50;63.00
23051;DHT22;11693;51.358;12.410;2022-08-07T00:13:39;19.40;62.60
23051;DHT22;11693;51.358;12.410;2022-08-07T00:16:06;19.40;63.00
23051;DHT22;11693;51.358;12.410;2022-08-07T00:18:32;19.30;63.30
23051;DHT22;11693;51.358;12.410;2022-08-07T00:21:00;19.40;64.10
23051;DHT22;11693;51.358;12.410;2022-08-07T00:23:26;19.30;63.80
23051;DHT22;11693;51.358;12.410;2022-08-07T00:25:52;19.30;63.00
23051;DHT22;11693;51.358;12.410;2022-08-07T00:28:18;19.30;63.40
23051;DHT22;11693;51.358;12.410;2022-08-07T00:30:44;19.20;63.50
23051;DHT22;11693;51.358;12.410;2022-08-07T00:33:10;19.20;63.70
23051;DHT22;11693;51.358;12.410;2022-08-07T00:35:36;19.10;63.80
23051;DHT22;11693;51.358;12.410;2022-08-07T00:38:02;19.10;64.60
23051;DHT22;11693;51.358;12.410;2022-08-07T00:40:28;19.00;65.00
23051;DHT22;11693;51.358;12.410;2022-08-07T00:42:54;19.00;65.50
23051;DHT22;11693;51.358;12.410;2022-08-07T00:45:20;19.00;65.70
23051;DHT22;11693;51.358;12.410;2022-08-07T00:47:47;19.00;66.20
23051;DHT22;11693;51.358;12.410;2022-08-07T00:50:13;19.00;66.30
23051;DHT22;11693;51.358;12.410;2022-08-07T00:52:39;18.90;66.50
23051;DHT22;11693;51.358;12.410;2022-08-07T00:55:05;18.90;66.20
23051;DHT22;11693;51.358;12.410;2022-08-07T00:57:31;18.90;66.40
23051;DHT22;11693;51.358;12.410;2022-08-07T00:59:57;18.90;66.60
23051;DHT22;11693;51.358;12.410;2022-08-07T01:02:24;18.80;66.20
23051;DHT22;11693;51.358;12.410;2022-08-07T01:04:50;18.80;65.80
23051;DHT22;11693;51.358;12.410;2022-08-07T01:07:19;18.80;66.40
23051;DHT22;11693;51.358;12.410;2022-08-07T01:09:45;18.80;66.10
23051;DHT22;11693;51.358;12.410;2022-08-07T01:12:16;18.80;66.30
23051;DHT22;11693;51.358;12.410;2022-08-07T01:14:42;18.80;66.80
23051;DHT22;11693;51.358;12.410;2022-08-07T01:17:08;18.90;66.80
23051;DHT22;11693;51.358;12.410;2022-08-07T01:19:36;18.80;67.30
23051;DHT22;11693;51.358;12.410;2022-08-07T01:22:02;18.70;68.10
23051;DHT22;11693;51.358;12.410;2022-08-07T01:24:28;18.50;68.60
23051;DHT22;11693;51.358;12.410;2022-08-07T01:26:54;18.40;69.10
23051;DHT22;11693;51.358;12.410;2022-08-07T01:29:24;18.30;69.40
23051;DHT22;11693;51.358;12.410;2022-08-07T01:31:51;18.30;69.70
23051;DHT22;11693;51.358;12.410;2022-08-07T01:34:17;18.40;69.70
23051;DHT22;11693;51.358;12.410;2022-08-07T01:36:44;18.40;69.30
23051;DHT22;11693;51.358;12.410;2022-08-07T01:39:10;18.40;68.60
23051;DHT22;11693;51.358;12.410;2022-08-07T01:41:37;18.40;68.20
23051;DHT22;11693;51.358;12.410;2022-08-07T01:44:03;18.40;68.70
23051;DHT22;11693;51.358;12.410;2022-08-07T01:46:30;18.40;68.80
23051;DHT22;11693;51.358;12.410;2022-08-07T01:48:55;18.40;68.90
23051;DHT22;11693;51.358;12.410;2022-08-07T01:51:23;18.50;69.80
23051;DHT22;11693;51.358;12.410;2022-08-07T01:53:56;18.50;69.00
23051;DHT22;11693;51.358;12.410;2022-08-07T01:57:09;18.60;68.80
23051;DHT22;11693;51.358;12.410;2022-08-07T01:59:28;18.50;68.60
23051;DHT22;11693;51.358;12.410;2022-08-07T02:02:02;18.50;69.30
23051;DHT22;11693;51.358;12.410;2022-08-07T02:04:43;18.40;69.30
23051;DHT22;11693;51.358;12.410;2022-08-07T02:07:13;18.40;69.70
23051;DHT22;11693;51.358;12.410;2022-08-07T02:09:42;18.40;69.70
23051;DHT22;11693;51.358;12.410;2022-08-07T02:12:11;18.40;70.10
23051;DHT22;11693;51.358;12.410;2022-08-07T02:14:54;18.30;70.70
23051;DHT22;11693;51.358;12.410;2022-08-07T02:17:21;18.30;71.50
23051;DHT22;11693;51.358;12.410;2022-08-07T02:19:48;18.40;72.20
23051;DHT22;11693;51.358;12.410;2022-08-07T02:22:15;18.30;72.70
23051;DHT22;11693;51.358;12.410;2022-08-07T02:24:45;18.20;73.00
23051;DHT22;11693;51.358;12.410;2022-08-07T02:27:13;18.10;72.10
23051;DHT22;11693;51.358;12.410;2022-08-07T02:29:41;18.10;71.80
23051;DHT22;11693;51.358;12.410;2022-08-07T02:32:08;18.00;72.30
23051;DHT22;11693;51.358;12.410;2022-08-07T02:34:36;17.90;72.30
23051;DHT22;11693;51.358;12.410;2022-08-07T02:37:03;18.00;72.80
23051;DHT22;11693;51.358;12.410;2022-08-07T02:39:31;18.00;72.50
23051;DHT22;11693;51.358;12.410;2022-08-07T02:41:58;18.00;72.60
23051;DHT22;11693;51.358;12.410;2022-08-07T02:44:26;17.90;72.70
23051;DHT22;11693;51.358;12.410;2022-08-07T02:46:55;17.90;73.00
23051;DHT22;11693;51.358;12.410;2022-08-07T02:49:21;18.00;73.20
23051;DHT22;11693;51.358;12.410;2022-08-07T02:51:47;18.00;73.40
23051;DHT22;11693;51.358;12.410;2022-08-07T02:54:14;18.00;73.10
23051;DHT22;11693;51.358;12.410;2022-08-07T02:56:42;18.00;73.20
23051;DHT22;11693;51.358;12.410;2022-08-07T02:59:10;17.90;73.60
23051;DHT22;11693;51.358;12.410;2022-08-07T03:01:40;18.00;73.20
23051;DHT22;11693;51.358;12.410;2022-08-07T03:04:08;18.00;72.90
23051;DHT22;11693;51.358;12.410;2022-08-07T03:06:35;18.00;72.70
23051;DHT22;11693;51.358;12.410;2022-08-07T03:09:05;18.00;72.50
23051;DHT22;11693;51.358;12.410;2022-08-07T03:11:37;18.00;72.30
23051;DHT22;11693;51.358;12.410;2022-08-07T03:14:04;18.00;72.30
23051;DHT22;11693;51.358;12.410;2022-08-07T03:16:31;18.00;72.40
23051;DHT22;11693;51.358;12.410;2022-08-07T03:18:58;18.00;72.90
23051;DHT22;11693;51.358;12.410;2022-08-07T03:21:25;17.80;73.00
23051;DHT22;11693;51.358;12.410;2022-08-07T03:23:54;17.70;73.40
23051;DHT22;11693;51.358;12.410;2022-08-07T03:26:23;17.70;74.80
23051;DHT22;11693;51.358;12.410;2022-08-07T03:28:50;17.70;73.60
23051;DHT22;11693;51.358;12.410;2022-08-07T03:31:16;17.80;73.80
23051;DHT22;11693;51.358;12.410;2022-08-07T03:33:52;17.90;73.80
23051;DHT22;11693;51.358;12.410;2022-08-07T03:36:20;17.90;73.80
23051;DHT22;11693;51.358;12.410;2022-08-07T03:38:49;17.80;74.70
23051;DHT22;11693;51.358;12.410;2022-08-07T03:41:16;17.80;74.90
23051;DHT22;11693;51.358;12.410;2022-08-07T03:43:42;17.70;76.10
23051;DHT22;11693;51.358;12.410;2022-08-07T03:46:08;17.70;75.10
23051;DHT22;11693;51.358;12.410;2022-08-07T03:48:34;17.60;75.60
23051;DHT22;11693;51.358;12.410;2022-08-07T03:51:02;17.60;76.40
23051;DHT22;11693;51.358;12.410;2022-08-07T03:53:28;17.50;75.60
23051;DHT22;11693;51.358;12.410;2022-08-07T03:55:55;17.50;75.80
23051;DHT22;11693;51.358;12.410;2022-08-07T03:58:22;17.60;76.30
23051;DHT22;11693;51.358;12.410;2022-08-07T04:00:49;17.60;76.20
23051;DHT22;11693;51.358;12.410;2022-08-07T04:03:17;17.60;76.40
23051;DHT22;11693;51.358;12.410;2022-08-07T04:05:43;17.60;77.10
23051;DHT22;11693;51.358;12.410;2022-08-07T04:08:10;17.80;77.30
23051;DHT22;11693;51.358;12.410;2022-08-07T04:10:36;17.90;76.60
23051;DHT22;11693;51.358;12.410;2022-08-07T04:13:03;18.00;76.30
23051;DHT22;11693;51.358;12.410;2022-08-07T04:15:28;18.00;76.70
23051;DHT22;11693;51.358;12.410;2022-08-07T04:17:54;17.90;77.30
23051;DHT22;11693;51.358;12.410;2022-08-07T04:20:20;17.90;77.80
23051;DHT22;11693;51.358;12.410;2022-08-07T04:22:46;17.80;78.00
23051;DHT22;11693;51.358;12.410;2022-08-07T04:25:14;18.00;78.70
23051;DHT22;11693;51.358;12.410;2022-08-07T04:27:40;18.60;78.10
23051;DHT22;11693;51.358;12.410;2022-08-07T04:30:07;19.10;76.40
23051;DHT22;11693;51.358;12.410;2022-08-07T04:32:33;19.60;75.00
23051;DHT22;11693;51.358;12.410;2022-08-07T04:35:03;20.00;73.20
23051;DHT22;11693;51.358;12.410;2022-08-07T04:37:31;20.40;71.70
23051;DHT22;11693;51.358;12.410;2022-08-07T04:39:57;20.70;70.60
23051;DHT22;11693;51.358;12.410;2022-08-07T04:42:22;20.90;69.50
23051;DHT22;11693;51.358;12.410;2022-08-07T04:44:53;21.10;68.70
23051;DHT22;11693;51.358;12.410;2022-08-07T04:47:32;21.20;69.00
23051;DHT22;11693;51.358;12.410;2022-08-07T04:50:11;21.40;68.40
23051;DHT22;11693;51.358;12.410;2022-08-07T04:52:44;21.70;67.10
23051;DHT22;11693;51.358;12.410;2022-08-07T04:55:22;22.00;66.40
23051;DHT22;11693;51.358;12.410;2022-08-07T04:57:58;22.10;65.90
23051;DHT22;11693;51.358;12.410;2022-08-07T05:00:59;22.30;65.20
23051;DHT22;11693;51.358;12.410;2022-08-07T05:03:45;22.40;64.10
23051;DHT22;11693;51.358;12.410;2022-08-07T05:06:13;22.50;65.10
23051;DHT22;11693;51.358;12.410;2022-08-07T05:08:47;22.70;63.70
23051;DHT22;11693;51.358;12.410;2022-08-07T05:11:30;22.90;62.30
23051;DHT22;11693;51.358;12.410;2022-08-07T05:14:09;23.00;62.50
23051;DHT22;11693;51.358;12.410;2022-08-07T05:16:37;23.20;61.80
23051;DHT22;11693;51.358;12.410;2022-08-07T05:19:09;23.20;61.50
23051;DHT22;11693;51.358;12.410;2022-08-07T05:21:37;23.30;60.40
23051;DHT22;11693;51.358;12.410;2022-08-07T05:24:09;23.30;60.10
23051;DHT22;11693;51.358;12.410;2022-08-07T05:26:36;23.30;60.40
23051;DHT22;11693;51.358;12.410;2022-08-07T05:29:06;23.40;60.10
23051;DHT22;11693;51.358;12.410;2022-08-07T05:31:36;23.30;60.60
23051;DHT22;11693;51.358;12.410;2022-08-07T05:34:05;23.30;60.40
23051;DHT22;11693;51.358;12.410;2022-08-07T05:36:31;23.40;60.40
23051;DHT22;11693;51.358;12.410;2022-08-07T05:38:58;23.40;60.30
23051;DHT22;11693;51.358;12.410;2022-08-07T05:41:25;23.60;59.30
23051;DHT22;11693;51.358;12.410;2022-08-07T05:43:54;23.80;59.40
23051;DHT22;11693;51.358;12.410;2022-08-07T05:46:21;24.20;58.20
23051;DHT22;11693;51.358;12.410;2022-08-07T05:48:48;24.20;57.20
23051;DHT22;11693;51.358;12.410;2022-08-07T05:51:14;24.30;55.90
23051;DHT22;11693;51.358;12.410;2022-08-07T05:53:40;24.40;56.30
23051;DHT22;11693;51.358;12.410;2022-08-07T05:56:07;24.40;56.50
23051;DHT22;11693;51.358;12.410;2022-08-07T05:58:36;24.60;56.90
23051;DHT22;11693;51.358;12.410;2022-08-07T06:01:02;25.00;55.60
23051;DHT22;11693;51.358;12.410;2022-08-07T06:03:29;25.10;55.30
23051;DHT22;11693;51.358;12.410;2022-08-07T06:05:56;25.30;55.40
23051;DHT22;11693;51.358;12.410;2022-08-07T06:08:22;25.50;55.10
23051;DHT22;11693;51.358;12.410;2022-08-07T06:10:48;25.60;54.30
23051;DHT22;11693;51.358;12.410;2022-08-07T06:13:14;25.60;54.50
23051;DHT22;11693;51.358;12.410;2022-08-07T06:15:41;25.70;53.90
23051;DHT22;11693;51.358;12.410;2022-08-07T06:18:08;25.80;55.00
23051;DHT22;11693;51.358;12.410;2022-08-07T06:20:36;25.90;53.90
23051;DHT22;11693;51.358;12.410;2022-08-07T06:23:04;25.90;53.20
23051;DHT22;11693;51.358;12.410;2022-08-07T06:25:32;25.90;53.10
23051;DHT22;11693;51.358;12.410;2022-08-07T06:28:07;25.90;53.30
23051;DHT22;11693;51.358;12.410;2022-08-07T06:30:35;26.00;53.90
23051;DHT22;11693;51.358;12.410;2022-08-07T06:33:01;26.10;53.70
23051;DHT22;11693;51.358;12.410;2022-08-07T06:35:28;26.40;53.50
23051;DHT22;11693;51.358;12.410;2022-08-07T06:37:53;26.60;52.30
23051;DHT22;11693;51.358;12.410;2022-08-07T06:40:20;26.40;52.30
23051;DHT22;11693;51.358;12.410;2022-08-07T06:42:47;26.30;52.60
23051;DHT22;11693;51.358;12.410;2022-08-07T06:45:15;26.40;52.70
23051;DHT22;11693;51.358;12.410;2022-08-07T06:47:42;26.60;51.90
23051;DHT22;11693;51.358;12.410;2022-08-07T06:50:08;26.70;51.80
23051;DHT22;11693;51.358;12.410;2022-08-07T06:52:36;26.80;51.70
23051;DHT22;11693;51.358;12.410;2022-08-07T06:55:09;26.80;52.10
23051;DHT22;11693;51.358;12.410;2022-08-07T06:57:36;27.00;51.50
23051;DHT22;11693;51.358;12.410;2022-08-07T07:00:03;27.00;51.30
23051;DHT22;11693;51.358;12.410;2022-08-07T07:02:29;27.00;51.20
23051;DHT22;11693;51.358;12.410;2022-08-07T07:04:56;27.20;51.60
23051;DHT22;11693;51.358;12.410;2022-08-07T07:07:22;27.40;51.50
23051;DHT22;11693;51.358;12.410;2022-08-07T07:09:48;27.70;51.50
23051;DHT22;11693;51.358;12.410;2022-08-07T07:19:58;28.10;50.50
23051;DHT22;11693;51.358;12.410;2022-08-07T07:22:26;28.10;50.50
23051;DHT22;11693;51.358;12.410;2022-08-07T07:24:53;28.30;49.70
23051;DHT22;11693;51.358;12.410;2022-08-07T07:27:22;28.40;50.40
23051;DHT22;11693;51.358;12.410;2022-08-07T07:29:51;28.50;49.40
23051;DHT22;11693;51.358;12.410;2022-08-07T07:32:20;28.60;49.20
23051;DHT22;11693;51.358;12.410;2022-08-07T07:34:50;28.70;50.00
23051;DHT22;11693;51.358;12.410;2022-08-07T07:37:18;28.80;49.00
23051;DHT22;11693;51.358;12.410;2022-08-07T07:39:46;29.10;48.90
23051;DHT22;11693;51.358;12.410;2022-08-07T07:42:14;29.30;49.00
23051;DHT22;11693;51.358;12.410;2022-08-07T07:44:43;29.30;47.80
23051;DHT22;11693;51.358;12.410;2022-08-07T07:47:11;29.20;48.00
23051;DHT22;11693;51.358;12.410;2022-08-07T07:49:39;29.20;48.10
23051;DHT22;11693;51.358;12.410;2022-08-07T07:52:06;29.20;47.80
23051;DHT22;11693;51.358;12.410;2022-08-07T07:54:32;29.00;47.70
23051;DHT22;11693;51.358;12.410;2022-08-07T07:56:59;29.00;48.30
23051;DHT22;11693;51.358;12.410;2022-08-07T07:59:26;29.10;48.00
23051;DHT22;11693;51.358;12.410;2022-08-07T08:01:53;29.10;48.80
23051;DHT22;11693;51.358;12.410;2022-08-07T08:04:19;29.40;48.40
23051;DHT22;11693;51.358;12.410;2022-08-07T08:06:46;29.70;47.60
23051;DHT22;11693;51.358;12.410;2022-08-07T08:09:13;29.90;46.80
23051;DHT22;11693;51.358;12.410;2022-08-07T08:11:39;30.20;47.60
23051;DHT22;11693;51.358;12.410;2022-08-07T08:14:05;30.30;46.50
23051;DHT22;11693;51.358;12.410;2022-08-07T08:16:37;30.10;46.30
23051;DHT22;11693;51.358;12.410;2022-08-07T08:19:06;30.00;46.30
23051;DHT22;11693;51.358;12.410;2022-08-07T08:21:34;29.90;45.80
23051;DHT22;11693;51.358;12.410;2022-08-07T08:24:20;29.80;45.70
23051;DHT22;11693;51.358;12.410;2022-08-07T08:27:06;29.80;45.90
23051;DHT22;11693;51.358;12.410;2022-08-07T08:29:39;30.00;45.70
23051;DHT22;11693;51.358;12.410;2022-08-07T08:32:09;30.20;46.10
23051;DHT22;11693;51.358;12.410;2022-08-07T08:34:37;30.30;44.60
23051;DHT22;11693;51.358;12.410;2022-08-07T08:37:05;30.20;45.10
23051;DHT22;11693;51.358;12.410;2022-08-07T08:39:33;30.20;45.00
23051;DHT22;11693;51.358;12.410;2022-08-07T08:42:03;30.20;44.60
23051;DHT22;11693;51.358;12.410;2022-08-07T08:49:35;30.00;42.50
23051;DHT22;11693;51.358;12.410;2022-08-07T08:52:11;30.10;42.70
23051;DHT22;11693;51.358;12.410;2022-08-07T08:54:46;30.10;43.40
23051;DHT22;11693;51.358;12.410;2022-08-07T08:57:24;30.30;42.70
23051;DHT22;11693;51.358;12.410;2022-08-07T09:00:06;30.70;43.00
23051;DHT22;11693;51.358;12.410;2022-08-07T09:05:37;31.10;40.60
23051;DHT22;11693;51.358;12.410;2022-08-07T09:11:19;30.50;41.80
23051;DHT22;11693;51.358;12.410;2022-08-07T09:27:02;29.70;41.00
23051;DHT22;11693;51.358;12.410;2022-08-07T09:34:59;30.30;41.00
23051;DHT22;11693;51.358;12.410;2022-08-07T09:40:25;29.70;40.70
23051;DHT22;11693;51.358;12.410;2022-08-07T09:43:06;29.90;40.50
23051;DHT22;11693;51.358;12.410;2022-08-07T09:46:03;30.20;40.40
23051;DHT22;11693;51.358;12.410;2022-08-07T09:53:27;31.00;38.40
23051;DHT22;11693;51.358;12.410;2022-08-07T09:56:19;31.40;38.80
23051;DHT22;11693;51.358;12.410;2022-08-07T10:10:39;31.00;40.80
23051;DHT22;11693;51.358;12.410;2022-08-07T10:13:22;31.20;40.10
23051;DHT22;11693;51.358;12.410;2022-08-07T10:21:34;31.40;41.00
23051;DHT22;11693;51.358;12.410;2022-08-07T10:24:14;32.00;40.40
23051;DHT22;11693;51.358;12.410;2022-08-07T10:45:24;32.40;37.60
23051;DHT22;11693;51.358;12.410;2022-08-07T10:50:56;32.70;37.70
23051;DHT22;11693;51.358;12.410;2022-08-07T10:53:56;33.00;37.20
23051;DHT22;11693;51.358;12.410;2022-08-07T11:10:46;35.00;34.40
23051;DHT22;11693;51.358;12.410;2022-08-07T11:13:17;34.50;34.70
23051;DHT22;11693;51.358;12.410;2022-08-07T11:15:47;34.40;35.30
23051;DHT22;11693;51.358;12.410;2022-08-07T11:18:24;34.60;35.20
23051;DHT22;11693;51.358;12.410;2022-08-07T11:23:27;35.30;33.90
23051;DHT22;11693;51.358;12.410;2022-08-07T11:28:42;36.40;33.30
23051;DHT22;11693;51.358;12.410;2022-08-07T11:31:36;36.90;33.10
23051;DHT22;11693;51.358;12.410;2022-08-07T11:34:13;36.70;32.70
23051;DHT22;11693;51.358;12.410;2022-08-07T11:39:46;37.70;31.90
23051;DHT22;11693;51.358;12.410;2022-08-07T11:42:29;38.00;31.30
23051;DHT22;11693;51.358;12.410;2022-08-07T11:45:12;37.50;30.80
23051;DHT22;11693;51.358;12.410;2022-08-07T11:48:04;37.50;30.80
23051;DHT22;11693;51.358;12.410;2022-08-07T11:51:12;37.80;30.70
23051;DHT22;11693;51.358;12.410;2022-08-07T12:02:28;38.00;31.00
23051;DHT22;11693;51.358;12.410;2022-08-07T12:08:51;38.60;30.90
23051;DHT22;11693;51.358;12.410;2022-08-07T12:11:30;38.80;30.30
23051;DHT22;11693;51.358;12.410;2022-08-07T12:14:16;38.40;30.20
23051;DHT22;11693;51.358;12.410;2022-08-07T12:16:50;38.20;31.20
23051;DHT22;11693;51.358;12.410;2022-08-07T12:19:48;38.90;30.70
23051;DHT22;11693;51.358;12.410;2022-08-07T12:22:27;40.00;29.90
23051;DHT22;11693;51.358;12.410;2022-08-07T12:25:12;40.30;28.80
23051;DHT22;11693;51.358;12.410;2022-08-07T12:28:03;39.60;28.60
23051;DHT22;11693;51.358;12.410;2022-08-07T12:30:35;39.10;29.50
23051;DHT22;11693;51.358;12.410;2022-08-07T12:33:14;39.30;29.50
23051;DHT22;11693;51.358;12.410;2022-08-07T12:35:46;39.90;29.40
23051;DHT22;11693;51.358;12.410;2022-08-07T12:38:13;40.80;28.70
23051;DHT22;11693;51.358;12.410;2022-08-07T12:40:41;41.00;29.00
23051;DHT22;11693;51.358;12.410;2022-08-07T12:43:09;41.20;28.60
23051;DHT22;11693;51.358;12.410;2022-08-07T12:46:13;41.80;28.40
23051;DHT22;11693;51.358;12.410;2022-08-07T12:48:57;42.10;27.90
23051;DHT22;11693;51.358;12.410;2022-08-07T12:51:36;42.10;28.40
23051;DHT22;11693;51.358;12.410;2022-08-07T12:54:14;42.00;27.70
23051;DHT22;11693;51.358;12.410;2022-08-07T12:56:44;41.10;28.40
23051;DHT22;11693;51.358;12.410;2022-08-07T12:59:18;41.00;28.00
23051;DHT22;11693;51.358;12.410;2022-08-07T13:01:57;40.30;28.30
23051;DHT22;11693;51.358;12.410;2022-08-07T13:19:15;41.00;28.40
23051;DHT22;11693;51.358;12.410;2022-08-07T13:21:59;40.30;27.90
23051;DHT22;11693;51.358;12.410;2022-08-07T13:27:17;38.70;28.30
23051;DHT22;11693;51.358;12.410;2022-08-07T13:30:00;38.30;29.20
23051;DHT22;11693;51.358;12.410;2022-08-07T13:32:47;38.50;28.50
23051;DHT22;11693;51.358;12.410;2022-08-07T13:35:38;38.30;28.80
23051;DHT22;11693;51.358;12.410;2022-08-07T13:38:30;38.00;29.30
23051;DHT22;11693;51.358;12.410;2022-08-07T13:43:47;39.00;28.50
23051;DHT22;11693;51.358;12.410;2022-08-07T13:46:15;39.00;28.00
23051;DHT22;11693;51.358;12.410;2022-08-07T13:48:48;38.70;28.30
23051;DHT22;11693;51.358;12.410;2022-08-07T13:51:17;39.10;28.50
23051;DHT22;11693;51.358;12.410;2022-08-07T13:53:53;39.60;28.00
23051;DHT22;11693;51.358;12.410;2022-08-07T13:56:23;39.60;27.70
23051;DHT22;11693;51.358;12.410;2022-08-07T13:58:52;39.40;27.90
23051;DHT22;11693;51.358;12.410;2022-08-07T14:01:41;39.10;28.10
23051;DHT22;11693;51.358;12.410;2022-08-07T14:04:10;38.70;28.00
23051;DHT22;11693;51.358;12.410;2022-08-07T14:06:39;38.50;28.50
23051;DHT22;11693;51.358;12.410;2022-08-07T14:09:08;38.60;28.60
23051;DHT22;11693;51.358;12.410;2022-08-07T14:12:02;38.20;28.40
23051;DHT22;11693;51.358;12.410;2022-08-07T14:14:29;37.60;29.10
23051;DHT22;11693;51.358;12.410;2022-08-07T14:16:59;37.30;29.10
23051;DHT22;11693;51.358;12.410;2022-08-07T14:19:35;37.40;29.10
23051;DHT22;11693;51.358;12.410;2022-08-07T14:22:05;37.30;29.20
23051;DHT22;11693;51.358;12.410;2022-08-07T14:24:41;37.00;29.30
23051;DHT22;11693;51.358;12.410;2022-08-07T14:27:11;37.10;30.00
23051;DHT22;11693;51.358;12.410;2022-08-07T14:29:46;37.00;29.30
23051;DHT22;11693;51.358;12.410;2022-08-07T14:32:14;36.60;29.40
23051;DHT22;11693;51.358;12.410;2022-08-07T14:34:43;36.00;30.00
23051;DHT22;11693;51.358;12.410;2022-08-07T14:37:12;35.40;31.10
23051;DHT22;11693;51.358;12.410;2022-08-07T14:39:40;34.90;31.80
23051;DHT22;11693;51.358;12.410;2022-08-07T14:42:09;34.10;31.40
23051;DHT22;11693;51.358;12.410;2022-08-07T14:44:48;33.50;31.70
23051;DHT22;11693;51.358;12.410;2022-08-07T14:47:17;32.60;33.50
23051;DHT22;11693;51.358;12.410;2022-08-07T14:49:44;32.10;33.00
23051;DHT22;11693;51.358;12.410;2022-08-07T14:52:10;31.70;33.90
23051;DHT22;11693;51.358;12.410;2022-08-07T14:54:37;31.30;34.90
23051;DHT22;11693;51.358;12.410;2022-08-07T14:57:06;31.10;35.10
23051;DHT22;11693;51.358;12.410;2022-08-07T14:59:35;30.70;35.90
23051;DHT22;11693;51.358;12.410;2022-08-07T15:02:21;30.40;35.60
23051;DHT22;11693;51.358;12.410;2022-08-07T15:04:48;29.90;35.30
23051;DHT22;11693;51.358;12.410;2022-08-07T15:07:22;29.70;37.00
23051;DHT22;11693;51.358;12.410;2022-08-07T15:09:50;29.70;35.80
23051;DHT22;11693;51.358;12.410;2022-08-07T15:12:23;29.70;35.80
23051;DHT22;11693;51.358;12.410;2022-08-07T15:14:54;29.50;36.10
23051;DHT22;11693;51.358;12.410;2022-08-07T15:17:25;29.30;36.70
23051;DHT22;11693;51.358;12.410;2022-08-07T15:19:59;29.30;36.40
23051;DHT22;11693;51.358;12.410;2022-08-07T15:22:29;29.10;36.70
23051;DHT22;11693;51.358;12.410;2022-08-07T15:24:56;29.30;37.00
23051;DHT22;11693;51.358;12.410;2022-08-07T15:27:25;29.20;38.80
23051;DHT22;11693;51.358;12.410;2022-08-07T15:29:58;29.10;36.30
23051;DHT22;11693;51.358;12.410;2022-08-07T15:32:25;29.00;36.60
23051;DHT22;11693;51.358;12.410;2022-08-07T15:34:54;29.10;36.40
23051;DHT22;11693;51.358;12.410;2022-08-07T15:37:24;29.00;36.60
23051;DHT22;11693;51.358;12.410;2022-08-07T15:39:54;29.10;38.00
23051;DHT22;11693;51.358;12.410;2022-08-07T15:45:02;29.10;37.40
23051;DHT22;11693;51.358;12.410;2022-08-07T15:47:33;29.00;37.80
23051;DHT22;11693;51.358;12.410;2022-08-07T15:50:02;29.10;40.30
23051;DHT22;11693;51.358;12.410;2022-08-07T15:52:29;29.10;39.00
23051;DHT22;11693;51.358;12.410;2022-08-07T15:54:55;29.00;39.80
23051;DHT22;11693;51.358;12.410;2022-08-07T15:57:26;29.10;39.60
23051;DHT22;11693;51.358;12.410;2022-08-07T15:59:54;29.00;38.70
23051;DHT22;11693;51.358;12.410;2022-08-07T16:02:30;29.00;37.10
23051;DHT22;11693;51.358;12.410;2022-08-07T16:04:59;28.90;36.90
23051;DHT22;11693;51.358;12.410;2022-08-07T16:07:30;28.80;36.90
23051;DHT22;11693;51.358;12.410;2022-08-07T16:10:15;28.70;36.90
23051;DHT22;11693;51.358;12.410;2022-08-07T16:24:56;28.80;37.80
23051;DHT22;11693;51.358;12.410;2022-08-07T16:32:51;28.60;37.30
23051;DHT22;11693;51.358;12.410;2022-08-07T16:36:15;28.70;38.50
23051;DHT22;11693;51.358;12.410;2022-08-07T16:38:44;28.80;37.50
23051;DHT22;11693;51.358;12.410;2022-08-07T16:47:15;28.60;38.50
23051;DHT22;11693;51.358;12.410;2022-08-07T16:58:24;28.50;38.40
23051;DHT22;11693;51.358;12.410;2022-08-07T17:27:12;24.40;46.50
23051;DHT22;11693;51.358;12.410;2022-08-07T17:30:08;25.10;46.60
23051;DHT22;11693;51.358;12.410;2022-08-07T17:32:38;25.80;45.10
23051;DHT22;11693;51.358;12.410;2022-08-07T17:35:31;26.40;45.20
23051;DHT22;11693;51.358;12.410;2022-08-07T17:38:13;26.70;43.90
23051;DHT22;11693;51.358;12.410;2022-08-07T17:43:33;27.30;42.90
23051;DHT22;11693;51.358;12.410;2022-08-07T17:46:41;27.40;43.30
23051;DHT22;11693;51.358;12.410;2022-08-07T17:49:22;27.50;42.00
23051;DHT22;11693;51.358;12.410;2022-08-07T17:51:54;27.40;42.50
23051;DHT22;11693;51.358;12.410;2022-08-07T17:54:34;27.40;43.00
23051;DHT22;11693;51.358;12.410;2022-08-07T17:57:19;27.50;42.60
23051;DHT22;11693;51.358;12.410;2022-08-07T17:59:53;27.50;43.60
23051;DHT22;11693;51.358;12.410;2022-08-07T18:02:32;27.50;43.30
23051;DHT22;11693;51.358;12.410;2022-08-07T18:13:45;27.20;43.00
23051;DHT22;11693;51.358;12.410;2022-08-07T18:16:29;27.20;43.90
23051;DHT22;11693;51.358;12.410;2022-08-07T18:21:57;27.10;42.90
23051;DHT22;11693;51.358;12.410;2022-08-07T18:30:08;26.80;43.70
23051;DHT22;11693;51.358;12.410;2022-08-07T18:33:05;26.70;43.80
23051;DHT22;11693;51.358;12.410;2022-08-07T18:36:03;26.60;43.80
23051;DHT22;11693;51.358;12.410;2022-08-07T18:39:10;26.60;44.20
23051;DHT22;11693;51.358;12.410;2022-08-07T18:44:38;26.50;44.50
23051;DHT22;11693;51.358;12.410;2022-08-07T18:47:16;26.40;44.70
23051;DHT22;11693;51.358;12.410;2022-08-07T18:50:11;26.30;44.90
23051;DHT22;11693;51.358;12.410;2022-08-07T18:52:51;26.20;44.70
23051;DHT22;11693;51.358;12.410;2022-08-07T19:01:02;26.00;45.30
23051;DHT22;11693;51.358;12.410;2022-08-07T19:03:46;25.90;45.00
23051;DHT22;11693;51.358;12.410;2022-08-07T19:06:15;25.90;45.20
23051;DHT22;11693;51.358;12.410;2022-08-07T19:14:22;25.70;45.80
23051;DHT22;11693;51.358;12.410;2022-08-07T19:17:02;25.60;45.60
23051;DHT22;11693;51.358;12.410;2022-08-07T19:19:52;25.50;46.70
23051;DHT22;11693;51.358;12.410;2022-08-07T19:24:49;25.30;46.60
23051;DHT22;11693;51.358;12.410;2022-08-07T19:27:19;25.20;46.00
23051;DHT22;11693;51.358;12.410;2022-08-07T19:30:00;25.20;46.50
23051;DHT22;11693;51.358;12.410;2022-08-07T19:32:26;25.20;46.10
23051;DHT22;11693;51.358;12.410;2022-08-07T19:35:00;25.10;46.40
23051;DHT22;11693;51.358;12.410;2022-08-07T19:37:28;25.10;46.40
23051;DHT22;11693;51.358;12.410;2022-08-07T19:39:57;25.00;46.40
23051;DHT22;11693;51.358;12.410;2022-08-07T19:42:25;25.00;46.40